createdAt,value
2019-03-24T00:04:41.532Z,104.70
2019-03-24T00:07:23.966Z,100.73
2019-03-24T00:10:11.278Z,107.03
2019-03-24T00:12:56.741Z,103.07
2019-03-24T00:15:39.914Z,102.83
2019-03-24T00:18:23.187Z,103.40
2019-03-24T00:21:09.548Z,104.77
2019-03-24T00:23:52.876Z,101.03
2019-03-24T00:26:35.136Z,107.50
2019-03-24T00:29:20.739Z,108.87
2019-03-24T00:32:06.475Z,112.03
2019-03-24T00:34:50.449Z,108.47
2019-03-24T00:37:34.687Z,103.27
2019-03-24T00:40:19.292Z,114.80
2019-03-24T00:43:17.413Z,104.23
2019-03-24T00:46:22.075Z,104.93
2019-03-24T00:49:06.179Z,110.87
2019-03-24T00:52:09.140Z,110.27
2019-03-24T00:54:57.026Z,103.53
2019-03-24T00:57:42.362Z,104.27
2019-03-24T01:00:27.428Z,113.47
2019-03-24T01:03:09.142Z,104.43
2019-03-24T01:05:54.037Z,111.23
2019-03-24T01:08:40.053Z,113.23
2019-03-24T01:11:24.250Z,108.73
2019-03-24T01:14:13.783Z,117.13
2019-03-24T01:17:29.635Z,105.53
2019-03-24T01:19:59.596Z,103.93
2019-03-24T01:22:41.430Z,110.40
2019-03-24T01:25:25.807Z,109.80
2019-03-24T01:28:13.074Z,104.70
2019-03-24T01:30:58.633Z,106.07
2019-03-24T01:33:43.670Z,99.50
2019-03-24T01:36:33.294Z,99.27
2019-03-24T01:39:17.647Z,103.57
2019-03-24T01:42:00.546Z,108.40
2019-03-24T01:44:42.533Z,103.77
2019-03-24T01:47:28.068Z,104.10
2019-03-24T01:53:06.858Z,106.47
2019-03-24T01:55:49.015Z,110.60
2019-03-24T01:58:31.186Z,106.70
2019-03-24T02:01:13.193Z,115.30
2019-03-24T02:06:44.675Z,117.17
2019-03-24T02:09:30.099Z,114.03
2019-03-24T02:14:58.231Z,107.97
2019-03-24T02:17:42.987Z,114.70
2019-03-24T02:20:26.803Z,125.13
2019-03-24T02:23:11.819Z,107.43
2019-03-24T02:25:54.675Z,107.00
2019-03-24T02:28:43.000Z,108.83
2019-03-24T02:31:27.905Z,105.93
2019-03-24T02:34:13.993Z,99.87
2019-03-24T02:36:58.649Z,98.67
2019-03-24T02:39:43.750Z,102.60
2019-03-24T02:42:28.483Z,106.20
2019-03-24T02:45:12.205Z,99.00
2019-03-24T02:47:58.515Z,108.37
2019-03-24T02:50:43.531Z,101.00
2019-03-24T02:53:35.056Z,100.77
2019-03-24T02:56:27.813Z,101.70
2019-03-24T02:59:33.250Z,101.40
2019-03-24T03:02:13.298Z,99.30
2019-03-24T03:05:06.000Z,103.13
2019-03-24T03:11:29.156Z,96.30
2019-03-24T03:14:08.864Z,100.40
2019-03-24T03:20:12.010Z,102.17
2019-03-24T03:22:57.720Z,104.47
2019-03-24T03:25:44.184Z,102.47
2019-03-24T03:28:35.433Z,104.07
2019-03-24T03:31:24.928Z,94.90
2019-03-24T03:34:29.434Z,106.70
2019-03-24T03:37:06.031Z,108.57
2019-03-24T03:43:04.624Z,101.30
2019-03-24T03:45:51.097Z,96.83
2019-03-24T03:48:41.779Z,101.83
2019-03-24T03:51:48.365Z,97.17
2019-03-24T03:54:31.218Z,99.37
2019-03-24T03:57:19.775Z,101.90
2019-03-24T04:00:08.284Z,100.17
2019-03-24T04:02:58.594Z,99.40
2019-03-24T04:05:41.141Z,106.73
2019-03-24T04:08:27.781Z,105.43
2019-03-24T04:11:09.494Z,109.77
2019-03-24T04:13:56.048Z,103.23
2019-03-24T04:16:40.962Z,102.50
2019-03-24T04:19:26.386Z,100.10
2019-03-24T04:22:10.927Z,105.43
2019-03-24T04:25:01.322Z,103.80
2019-03-24T04:27:50.160Z,104.93
2019-03-24T04:30:33.239Z,107.57
2019-03-24T04:33:15.011Z,109.57
2019-03-24T04:36:03.001Z,102.37
2019-03-24T04:39:05.381Z,100.73
2019-03-24T04:41:42.391Z,106.37
2019-03-24T04:44:31.595Z,103.67
2019-03-24T04:47:18.883Z,103.17
2019-03-24T04:50:00.933Z,103.83
2019-03-24T04:52:43.733Z,107.80
2019-03-24T04:55:28.562Z,100.70
2019-03-24T04:58:10.531Z,113.77
2019-03-24T05:04:09.317Z,100.20
2019-03-24T05:06:46.790Z,102.20
2019-03-24T05:09:32.668Z,103.60
2019-03-24T05:12:35.178Z,93.20
2019-03-24T05:15:36.262Z,96.47
2019-03-24T05:18:11.500Z,94.80
2019-03-24T05:20:56.776Z,103.70
2019-03-24T05:23:43.350Z,103.90
2019-03-24T05:26:38.698Z,110.63
2019-03-24T05:29:31.098Z,103.40
2019-03-24T05:32:11.138Z,113.57
2019-03-24T05:34:54.062Z,107.93
2019-03-24T05:40:23.492Z,98.77
2019-03-24T05:43:15.290Z,104.10
2019-03-24T05:45:59.161Z,101.73
2019-03-24T05:48:43.332Z,98.97
2019-03-24T05:51:28.882Z,105.90
2019-03-24T05:54:16.418Z,105.07
2019-03-24T05:57:01.536Z,105.13
2019-03-24T05:59:46.175Z,105.83
2019-03-24T06:02:33.911Z,105.47
2019-03-24T06:05:21.521Z,99.43
2019-03-24T06:11:01.488Z,100.70
2019-03-24T06:13:47.257Z,100.27
2019-03-24T06:16:29.436Z,107.50
2019-03-24T06:19:12.894Z,98.63
2019-03-24T06:21:56.113Z,96.80
2019-03-24T06:24:38.946Z,101.27
2019-03-24T06:27:21.001Z,106.73
2019-03-24T06:30:03.178Z,101.53
2019-03-24T06:32:46.645Z,100.70
2019-03-24T06:35:37.804Z,106.87
2019-03-24T06:38:20.366Z,105.30
2019-03-24T06:41:03.052Z,94.43
2019-03-24T06:44:11.438Z,97.93
2019-03-24T06:46:47.070Z,104.37
2019-03-24T06:49:28.647Z,95.73
2019-03-24T06:52:15.617Z,96.13
2019-03-24T06:54:59.714Z,100.37
2019-03-24T06:57:43.419Z,102.67
2019-03-24T07:00:29.947Z,104.23
2019-03-24T07:03:20.220Z,93.97
2019-03-24T07:06:08.695Z,98.47
2019-03-24T07:08:59.633Z,92.57
2019-03-24T07:11:43.035Z,99.33
2019-03-24T07:14:27.986Z,99.63
2019-03-24T07:17:09.564Z,97.27
2019-03-24T07:20:12.891Z,98.00
2019-03-24T07:22:49.760Z,99.37
2019-03-24T07:25:39.102Z,100.80
2019-03-24T07:28:22.022Z,98.57
2019-03-24T07:31:06.166Z,93.27
2019-03-24T07:33:57.880Z,92.33
2019-03-24T07:36:40.759Z,96.40
2019-03-24T07:39:24.500Z,88.70
2019-03-24T07:42:21.269Z,87.53
2019-03-24T07:45:26.411Z,87.03
2019-03-24T07:48:19.018Z,85.07
2019-03-24T07:57:02.858Z,76.00
2019-03-24T07:59:47.778Z,74.13
2019-03-24T08:05:46.927Z,68.90
2019-03-24T08:11:32.333Z,66.60
2019-03-24T08:14:19.046Z,59.53
2019-03-24T08:17:02.990Z,66.67
2019-03-24T08:19:45.325Z,66.13
2019-03-24T08:22:29.275Z,65.30
2019-03-24T08:25:15.532Z,64.33
2019-03-24T08:28:31.745Z,60.00
2019-03-24T08:31:10.107Z,60.70
2019-03-24T08:33:56.959Z,53.90
2019-03-24T08:36:37.126Z,51.53
2019-03-24T08:39:21.264Z,51.97
2019-03-24T08:42:04.102Z,56.10
2019-03-24T08:44:48.916Z,50.67
2019-03-24T08:47:31.246Z,55.70
2019-03-24T08:50:17.158Z,56.70
2019-03-24T08:53:06.309Z,57.07
2019-03-24T08:55:56.269Z,52.47
2019-03-24T08:58:41.927Z,52.20
2019-03-24T09:01:26.542Z,52.83
2019-03-24T09:04:14.544Z,55.53
2019-03-24T09:07:01.468Z,49.77
2019-03-24T09:09:47.763Z,56.00
2019-03-24T09:12:31.244Z,51.73
2019-03-24T09:15:15.763Z,46.03
2019-03-24T09:18:05.152Z,48.67
2019-03-24T09:20:55.789Z,47.73
2019-03-24T09:23:42.581Z,44.93
2019-03-24T09:26:31.116Z,43.63
2019-03-24T09:29:18.642Z,45.20
2019-03-24T09:32:15.629Z,45.03
2019-03-24T09:34:52.721Z,43.07
2019-03-24T09:38:01.223Z,45.93
2019-03-24T09:40:49.370Z,41.20
2019-03-24T09:43:29.227Z,43.10
2019-03-24T09:46:12.374Z,46.40
2019-03-24T09:49:03.015Z,47.90
2019-03-24T09:54:47.127Z,49.10
2019-03-24T09:57:44.909Z,45.97
2019-03-24T10:00:21.252Z,54.77
2019-03-24T10:03:03.688Z,58.33
2019-03-24T10:05:45.876Z,59.50
2019-03-24T10:08:27.668Z,63.03
2019-03-24T10:11:09.653Z,62.57
2019-03-24T10:13:51.659Z,67.67
2019-03-24T10:16:22.924Z,72.47
2019-03-24T10:19:14.275Z,70.30
2019-03-24T10:21:50.317Z,76.70
2019-03-24T10:24:39.874Z,75.27
2019-03-24T10:27:22.106Z,73.67
2019-03-24T10:30:04.027Z,74.93
2019-03-24T10:32:46.081Z,82.57
2019-03-24T10:35:28.104Z,75.90
2019-03-24T10:38:10.289Z,83.33
2019-03-24T10:40:41.046Z,78.60
2019-03-24T10:43:22.689Z,69.97
2019-03-24T10:46:04.192Z,81.63
2019-03-24T10:48:46.187Z,76.10
2019-03-24T10:51:28.279Z,79.43
2019-03-24T10:54:10.316Z,79.80
2019-03-24T10:56:41.137Z,81.77
2019-03-24T10:59:23.503Z,78.60
2019-03-24T11:02:05.431Z,83.93
2019-03-24T11:04:47.531Z,82.97
2019-03-24T11:07:29.935Z,71.87
2019-03-24T11:10:12.204Z,69.33
2019-03-24T11:12:54.397Z,60.70
2019-03-24T11:15:36.425Z,56.50
2019-03-24T11:18:18.346Z,61.77
2019-03-24T11:21:00.622Z,64.73
2019-03-24T11:23:42.724Z,71.97
2019-03-24T11:26:24.756Z,63.70
2019-03-24T11:29:07.061Z,69.77
2019-03-24T11:31:37.982Z,56.67
2019-03-24T11:34:19.969Z,52.13
2019-03-24T11:37:01.871Z,46.57
2019-03-24T11:39:43.741Z,59.97
2019-03-24T11:42:25.774Z,51.77
2019-03-24T11:45:08.373Z,50.87
2019-03-24T11:47:50.503Z,54.10
2019-03-24T11:50:32.758Z,53.03
2019-03-24T11:53:15.198Z,48.77
2019-03-24T11:55:57.204Z,49.33
2019-03-24T11:58:39.398Z,49.17
2019-03-24T12:01:21.499Z,44.73
2019-03-24T12:04:03.397Z,44.57
2019-03-24T12:06:45.381Z,39.30
2019-03-24T12:09:16.283Z,37.80
2019-03-24T12:11:47.166Z,40.43
2019-03-24T12:14:36.706Z,34.27
2019-03-24T12:17:18.160Z,43.57
2019-03-24T12:20:01.940Z,33.23
2019-03-24T12:22:43.667Z,34.03
2019-03-24T12:25:25.645Z,37.93
2019-03-24T12:28:07.798Z,32.63
2019-03-24T12:30:49.906Z,28.97
2019-03-24T12:33:31.884Z,29.73
2019-03-24T12:36:13.930Z,28.00
2019-03-24T12:38:56.053Z,29.73
2019-03-24T12:41:38.422Z,24.20
2019-03-24T12:44:22.582Z,26.00
2019-03-24T12:47:04.835Z,22.67
2019-03-24T12:49:46.939Z,25.53
2019-03-24T12:52:28.895Z,19.23
2019-03-24T12:55:10.865Z,26.67
2019-03-24T12:57:44.077Z,19.73
2019-03-24T13:00:52.582Z,17.63
2019-03-24T13:03:25.471Z,15.03
2019-03-24T13:05:56.248Z,18.90
2019-03-24T13:08:38.260Z,18.53
2019-03-24T13:11:20.260Z,13.43
2019-03-24T13:14:02.643Z,19.57
2019-03-24T13:16:33.408Z,22.90
2019-03-24T13:19:15.015Z,21.50
2019-03-24T13:21:57.340Z,22.90
2019-03-24T13:24:39.566Z,22.47
2019-03-24T13:27:22.093Z,22.23
2019-03-24T13:30:04.239Z,21.23
2019-03-24T13:32:46.347Z,24.13
2019-03-24T13:35:28.295Z,20.30
2019-03-24T13:38:10.653Z,22.27
2019-03-24T13:40:53.186Z,22.33
2019-03-24T13:43:35.253Z,22.97
2019-03-24T13:46:17.392Z,24.33
2019-03-24T13:48:59.977Z,21.43
2019-03-24T13:51:41.814Z,19.17
2019-03-24T13:54:24.145Z,19.30
2019-03-24T13:57:06.733Z,15.93
2019-03-24T13:59:49.129Z,18.63
2019-03-24T14:02:31.063Z,14.87
2019-03-24T14:05:02.358Z,14.73
2019-03-24T14:07:33.454Z,19.23
2019-03-24T14:10:15.772Z,14.60
2019-03-24T14:12:57.896Z,17.43
2019-03-24T14:15:28.808Z,14.57
2019-03-24T14:18:18.385Z,19.27
2019-03-24T14:21:00.055Z,12.03
2019-03-24T14:23:43.391Z,13.80
2019-03-24T14:26:25.518Z,14.10
2019-03-24T14:28:56.374Z,12.63
2019-03-24T14:31:38.657Z,13.53
2019-03-24T14:34:20.781Z,12.87
2019-03-24T14:37:03.038Z,12.03
2019-03-24T14:39:45.122Z,11.77
2019-03-24T14:42:27.346Z,9.87
2019-03-24T14:45:09.508Z,10.73
2019-03-24T14:47:52.505Z,13.67
2019-03-24T14:50:34.763Z,11.97
2019-03-24T14:53:18.478Z,11.70
2019-03-24T14:56:02.001Z,10.90
2019-03-24T14:58:45.183Z,12.00
2019-03-24T15:01:29.843Z,12.07
2019-03-24T15:04:11.642Z,13.20
2019-03-24T15:06:53.908Z,12.07
2019-03-24T15:09:35.802Z,10.63
2019-03-24T15:12:17.709Z,11.53
2019-03-24T15:15:00.003Z,11.93
2019-03-24T15:17:42.158Z,11.93
2019-03-24T15:20:24.002Z,11.60
2019-03-24T15:23:08.596Z,12.47
2019-03-24T15:25:55.785Z,15.03
2019-03-24T15:28:37.441Z,9.67
2019-03-24T15:31:19.534Z,9.83
2019-03-24T15:33:50.355Z,11.53
2019-03-24T15:36:39.950Z,11.23
2019-03-24T15:39:24.398Z,9.40
2019-03-24T15:42:09.461Z,12.60
2019-03-24T15:44:52.387Z,12.37
2019-03-24T15:47:36.941Z,11.07
2019-03-24T15:50:22.302Z,11.37
2019-03-24T15:52:53.265Z,9.47
2019-03-24T15:55:40.919Z,11.83
2019-03-24T15:58:22.795Z,8.43
2019-03-24T16:01:04.944Z,11.20
2019-03-24T16:03:46.495Z,10.73
2019-03-24T16:06:29.229Z,11.93
2019-03-24T16:09:11.906Z,8.97
2019-03-24T16:11:54.221Z,9.33
2019-03-24T16:14:35.920Z,9.60
2019-03-24T16:17:18.495Z,9.10
2019-03-24T16:20:02.251Z,11.73
2019-03-24T16:22:43.709Z,10.27
2019-03-24T16:25:25.580Z,10.33
2019-03-24T16:28:08.038Z,6.33
2019-03-24T16:30:50.097Z,9.43
2019-03-24T16:33:35.067Z,8.97
2019-03-24T16:36:17.981Z,9.37
2019-03-24T16:39:03.898Z,8.97
2019-03-24T16:41:44.900Z,12.73
2019-03-24T16:44:28.210Z,9.43
2019-03-24T16:47:10.753Z,7.50
2019-03-24T16:49:54.062Z,8.50
2019-03-24T16:52:42.014Z,10.87
2019-03-24T16:55:24.547Z,7.60
2019-03-24T16:58:06.992Z,7.20
2019-03-24T17:00:49.790Z,7.87
2019-03-24T17:03:35.800Z,8.00
2019-03-24T17:06:20.197Z,11.57
2019-03-24T17:09:07.870Z,11.20
2019-03-24T17:11:50.089Z,10.77
2019-03-24T17:14:32.189Z,12.17
2019-03-24T17:17:14.949Z,11.63
2019-03-24T17:20:02.503Z,9.73
2019-03-24T17:22:46.264Z,10.63
2019-03-24T17:25:28.581Z,11.17
2019-03-24T17:31:29.193Z,10.97
2019-03-24T17:34:12.373Z,8.10
2019-03-24T17:36:55.359Z,10.80
2019-03-24T17:39:39.395Z,8.77
2019-03-24T17:42:21.252Z,8.73
2019-03-24T17:45:05.148Z,9.37
2019-03-24T17:47:49.511Z,7.03
2019-03-24T17:50:34.540Z,10.97
2019-03-24T17:53:17.163Z,10.70
2019-03-24T17:56:00.204Z,10.83
2019-03-24T17:58:46.837Z,9.03
2019-03-24T18:01:29.107Z,10.67
2019-03-24T18:04:11.471Z,7.43
2019-03-24T18:06:53.591Z,6.17
2019-03-24T18:09:35.309Z,6.07
2019-03-24T18:12:17.095Z,8.37
2019-03-24T18:14:59.125Z,6.27
2019-03-24T18:17:42.132Z,7.83
2019-03-24T18:20:24.357Z,5.70
2019-03-24T18:23:13.069Z,4.97
2019-03-24T18:25:56.102Z,7.60
2019-03-24T18:28:38.163Z,8.93
2019-03-24T18:31:21.974Z,7.10
2019-03-24T18:34:05.013Z,9.40
2019-03-24T18:39:42.533Z,5.03
2019-03-24T18:42:24.778Z,8.83
2019-03-24T18:45:07.404Z,7.27
2019-03-24T18:47:51.455Z,8.43
2019-03-24T18:50:32.751Z,7.57
2019-03-24T18:53:17.380Z,8.93
2019-03-24T18:56:01.418Z,8.03
2019-03-24T19:01:33.461Z,8.07
2019-03-24T19:04:16.960Z,9.17
2019-03-24T19:07:06.695Z,11.03
2019-03-24T19:09:49.355Z,9.17
2019-03-24T19:12:36.859Z,13.20
2019-03-24T19:15:21.244Z,9.97
2019-03-24T19:18:05.241Z,7.00
2019-03-24T19:20:47.319Z,9.93
2019-03-24T19:23:29.752Z,8.03
2019-03-24T19:26:12.003Z,10.13
2019-03-24T19:28:53.561Z,9.03
2019-03-24T19:31:39.304Z,9.77
2019-03-24T19:34:21.765Z,10.20
2019-03-24T19:37:04.829Z,11.83
2019-03-24T19:39:46.862Z,9.80
2019-03-24T19:42:28.958Z,10.83
2019-03-24T19:45:14.892Z,15.63
2019-03-24T19:48:00.942Z,19.80
2019-03-24T19:50:42.494Z,17.80
2019-03-24T19:53:24.455Z,18.13
2019-03-24T19:56:07.363Z,14.60
2019-03-24T19:58:49.603Z,10.50
2019-03-24T20:01:34.825Z,8.70
2019-03-24T20:04:16.820Z,8.83
2019-03-24T20:06:59.060Z,9.40
2019-03-24T20:09:30.150Z,14.10
2019-03-24T20:12:12.515Z,10.20
2019-03-24T20:14:56.692Z,6.43
2019-03-24T20:20:33.076Z,10.17
2019-03-24T20:23:17.156Z,11.20
2019-03-24T20:26:00.552Z,8.50
2019-03-24T20:28:48.146Z,12.57
2019-03-24T20:31:29.688Z,12.77
2019-03-24T20:34:11.611Z,10.53
2019-03-24T20:36:53.365Z,10.57
2019-03-24T20:42:43.933Z,13.13
2019-03-24T20:45:28.516Z,10.53
2019-03-24T20:48:16.802Z,10.63
2019-03-24T20:51:03.159Z,9.27
2019-03-24T20:56:33.339Z,13.30
2019-03-24T20:59:16.078Z,12.23
2019-03-24T21:02:00.062Z,7.20
2019-03-24T21:04:42.809Z,13.77
2019-03-24T21:07:29.405Z,14.33
2019-03-24T21:10:11.731Z,10.00
2019-03-24T21:12:59.538Z,14.57
2019-03-24T21:15:33.063Z,11.47
2019-03-24T21:18:04.151Z,10.67
2019-03-24T21:20:54.688Z,10.37
2019-03-24T21:23:38.755Z,8.37
2019-03-24T21:26:22.491Z,12.27
2019-03-24T21:29:04.003Z,14.83
2019-03-24T21:31:46.851Z,9.30
2019-03-24T21:34:17.870Z,16.73
2019-03-24T21:37:07.590Z,13.57
2019-03-24T21:39:49.889Z,10.80
2019-03-24T21:42:32.028Z,17.57
2019-03-24T21:45:14.008Z,8.10
2019-03-24T21:47:55.984Z,15.03
2019-03-24T21:50:38.381Z,12.53
2019-03-24T21:53:20.280Z,11.77
2019-03-24T21:56:03.305Z,10.63
2019-03-24T21:58:46.438Z,9.47
2019-03-24T22:01:29.566Z,9.10
2019-03-24T22:04:15.017Z,9.93
2019-03-24T22:06:56.585Z,8.73
2019-03-24T22:09:42.866Z,13.87
2019-03-24T22:12:25.539Z,11.47
2019-03-24T22:15:07.121Z,9.33
2019-03-24T22:17:49.332Z,8.63
2019-03-24T22:20:31.922Z,11.70
2019-03-24T22:23:16.992Z,12.13
2019-03-24T22:26:00.050Z,12.60
2019-03-24T22:28:43.214Z,7.13
2019-03-24T22:31:25.839Z,12.77
2019-03-24T22:34:07.874Z,12.13
2019-03-24T22:36:49.975Z,13.90
2019-03-24T22:39:33.002Z,15.07
2019-03-24T22:42:14.703Z,14.80
2019-03-24T22:44:56.614Z,14.00
2019-03-24T22:47:39.346Z,13.60
2019-03-24T22:50:22.170Z,23.40
2019-03-24T22:55:48.163Z,15.57
2019-03-24T22:58:31.745Z,15.80
2019-03-24T23:01:16.428Z,10.63
2019-03-24T23:04:01.422Z,12.77
2019-03-24T23:07:14.461Z,10.53
2019-03-24T23:09:46.899Z,16.87
2019-03-24T23:12:30.005Z,10.77
2019-03-24T23:15:12.116Z,13.90
2019-03-24T23:17:53.995Z,9.63
2019-03-24T23:20:36.645Z,10.47
2019-03-24T23:23:20.092Z,13.30
2019-03-24T23:26:03.446Z,11.03
2019-03-24T23:28:51.359Z,13.50
2019-03-24T23:31:34.243Z,11.57
2019-03-24T23:34:16.755Z,15.03
2019-03-24T23:36:59.045Z,14.00
2019-03-24T23:39:41.466Z,8.90
2019-03-24T23:42:23.703Z,16.17
2019-03-24T23:45:05.861Z,10.73
2019-03-24T23:47:47.986Z,8.97
2019-03-24T23:50:29.535Z,12.60
2019-03-24T23:53:11.672Z,14.30
2019-03-24T23:55:54.053Z,18.27
2019-03-24T23:58:40.685Z,12.33
